アンタナナリボ の空港の天気 - METARとTAF

イヴァト空港(アンタナナリボ) ( FMMI / TNR ) - マダガスカル アンタナナリボ
飛行場実況気象(Metar)
観測時間10/16 09:30 EAT (10/16 06:30 UTC)
風向・風速不定 2m/s
視程10km以上
天気現象
少しの雲 雲底高度 610m
気温23℃
湿度53%
気圧1022hPa
METARFMMI 160630Z VRB03KT 9999 FEW020 23/13 Q1022 NOSIG
過去の天気等 Google飛行場航空写真 Wunderground天気予報

過去48時間のMETAR

飛行場予報(TAF)
発表時間: -
16日11時 EAT ~ 16日14時 EAT に徐々に
風向・風速北北西 5m/s
16日14時 EAT ~ 16日23時 EAT に一時的に
視程4000m
天気現象雷雨
全天の8割程度の積乱雲 雲底高度 460m
16日20時 EAT ~ 17日1時 EAT に徐々に
風向・風速静穏
17日5時 EAT から 確率 30% で
視程1500m
天気現象もや
TAF
FMMI 160500Z 1606/1712 12005KT 9999 SCT020
BECMG 1608/1611 34010KT
TEMPO 1611/1620 4000 TSRA BKN015CB
BECMG 1617/1622 00000KT
PROB30 1702/1705 1500 BR